sensor_id;sensor_type;location;lat;lon;timestamp;P1;durP1;ratioP1;P2;durP2;ratioP2
19448;SDS011;9863;49.404;8.246;2023-04-25T00:00:39;8.05;;;2.25;;
19448;SDS011;9863;49.404;8.246;2023-04-25T00:03:06;9.25;;;2.60;;
19448;SDS011;9863;49.404;8.246;2023-04-25T00:05:35;7.35;;;2.08;;
19448;SDS011;9863;49.404;8.246;2023-04-25T00:08:03;8.70;;;2.40;;
19448;SDS011;9863;49.404;8.246;2023-04-25T00:10:31;11.13;;;2.90;;
19448;SDS011;9863;49.404;8.246;2023-04-25T00:12:58;11.70;;;2.83;;
19448;SDS011;9863;49.404;8.246;2023-04-25T00:15:28;9.73;;;2.45;;
19448;SDS011;9863;49.404;8.246;2023-04-25T00:17:58;13.15;;;3.42;;
19448;SDS011;9863;49.404;8.246;2023-04-25T00:20:26;10.13;;;2.60;;
19448;SDS011;9863;49.404;8.246;2023-04-25T00:22:53;8.63;;;2.17;;
19448;SDS011;9863;49.404;8.246;2023-04-25T00:25:21;10.48;;;2.58;;
19448;SDS011;9863;49.404;8.246;2023-04-25T00:27:48;12.23;;;3.10;;
19448;SDS011;9863;49.404;8.246;2023-04-25T00:30:16;9.25;;;2.38;;
19448;SDS011;9863;49.404;8.246;2023-04-25T00:32:43;10.57;;;2.60;;
19448;SDS011;9863;49.404;8.246;2023-04-25T00:35:11;13.95;;;3.40;;
19448;SDS011;9863;49.404;8.246;2023-04-25T00:37:38;12.23;;;3.10;;
19448;SDS011;9863;49.404;8.246;2023-04-25T00:40:06;10.70;;;2.65;;
19448;SDS011;9863;49.404;8.246;2023-04-25T00:42:34;10.23;;;2.55;;
19448;SDS011;9863;49.404;8.246;2023-04-25T00:45:04;11.63;;;2.88;;
19448;SDS011;9863;49.404;8.246;2023-04-25T00:47:33;9.55;;;2.40;;
19448;SDS011;9863;49.404;8.246;2023-04-25T00:50:02;11.52;;;2.80;;
19448;SDS011;9863;49.404;8.246;2023-04-25T00:52:30;8.10;;;2.13;;
19448;SDS011;9863;49.404;8.246;2023-04-25T00:54:57;10.48;;;2.58;;
19448;SDS011;9863;49.404;8.246;2023-04-25T00:57:25;8.27;;;2.10;;
19448;SDS011;9863;49.404;8.246;2023-04-25T00:59:52;11.50;;;2.80;;
19448;SDS011;9863;49.404;8.246;2023-04-25T01:02:20;11.43;;;2.88;;
19448;SDS011;9863;49.404;8.246;2023-04-25T01:04:48;16.30;;;3.97;;
19448;SDS011;9863;49.404;8.246;2023-04-25T01:07:15;9.93;;;2.47;;
19448;SDS011;9863;49.404;8.246;2023-04-25T01:09:43;45.55;;;10.88;;
19448;SDS011;9863;49.404;8.246;2023-04-25T01:12:10;16.42;;;3.97;;
19448;SDS011;9863;49.404;8.246;2023-04-25T01:14:38;14.52;;;3.75;;
19448;SDS011;9863;49.404;8.246;2023-04-25T01:17:05;11.27;;;2.90;;
19448;SDS011;9863;49.404;8.246;2023-04-25T01:19:34;9.07;;;2.30;;
19448;SDS011;9863;49.404;8.246;2023-04-25T01:22:01;17.90;;;4.25;;
19448;SDS011;9863;49.404;8.246;2023-04-25T01:24:32;12.75;;;3.17;;
19448;SDS011;9863;49.404;8.246;2023-04-25T01:27:00;11.60;;;2.85;;
19448;SDS011;9863;49.404;8.246;2023-04-25T01:29:28;9.88;;;2.53;;
19448;SDS011;9863;49.404;8.246;2023-04-25T01:31:56;14.40;;;3.53;;
19448;SDS011;9863;49.404;8.246;2023-04-25T01:34:25;10.60;;;2.65;;
19448;SDS011;9863;49.404;8.246;2023-04-25T01:36:52;9.50;;;2.40;;
19448;SDS011;9863;49.404;8.246;2023-04-25T01:39:20;15.07;;;3.90;;
19448;SDS011;9863;49.404;8.246;2023-04-25T01:41:47;16.77;;;4.03;;
19448;SDS011;9863;49.404;8.246;2023-04-25T01:44:15;8.38;;;2.08;;
19448;SDS011;9863;49.404;8.246;2023-04-25T01:46:43;9.75;;;2.42;;
19448;SDS011;9863;49.404;8.246;2023-04-25T01:49:11;15.27;;;3.55;;
19448;SDS011;9863;49.404;8.246;2023-04-25T01:51:38;10.35;;;2.47;;
19448;SDS011;9863;49.404;8.246;2023-04-25T01:54:06;11.18;;;2.70;;
19448;SDS011;9863;49.404;8.246;2023-04-25T01:56:36;14.32;;;3.25;;
19448;SDS011;9863;49.404;8.246;2023-04-25T01:59:04;19.15;;;4.30;;
19448;SDS011;9863;49.404;8.246;2023-04-25T02:01:32;10.32;;;2.42;;
19448;SDS011;9863;49.404;8.246;2023-04-25T02:03:59;12.90;;;3.05;;
19448;SDS011;9863;49.404;8.246;2023-04-25T02:06:27;12.90;;;3.05;;
19448;SDS011;9863;49.404;8.246;2023-04-25T02:08:55;10.27;;;2.42;;
19448;SDS011;9863;49.404;8.246;2023-04-25T02:11:22;10.52;;;2.47;;
19448;SDS011;9863;49.404;8.246;2023-04-25T02:13:49;11.88;;;2.78;;
19448;SDS011;9863;49.404;8.246;2023-04-25T02:16:17;12.40;;;2.80;;
19448;SDS011;9863;49.404;8.246;2023-04-25T02:18:45;11.52;;;2.70;;
19448;SDS011;9863;49.404;8.246;2023-04-25T02:21:13;15.15;;;3.55;;
19448;SDS011;9863;49.404;8.246;2023-04-25T02:23:41;11.73;;;2.80;;
19448;SDS011;9863;49.404;8.246;2023-04-25T02:26:08;12.25;;;3.00;;
19448;SDS011;9863;49.404;8.246;2023-04-25T02:28:37;10.98;;;2.60;;
19448;SDS011;9863;49.404;8.246;2023-04-25T02:31:04;12.27;;;2.85;;
19448;SDS011;9863;49.404;8.246;2023-04-25T02:33:32;12.68;;;2.97;;
19448;SDS011;9863;49.404;8.246;2023-04-25T02:35:59;14.25;;;3.35;;
19448;SDS011;9863;49.404;8.246;2023-04-25T02:38:27;14.77;;;3.38;;
19448;SDS011;9863;49.404;8.246;2023-04-25T02:40:54;12.50;;;2.85;;
19448;SDS011;9863;49.404;8.246;2023-04-25T02:43:21;15.70;;;3.55;;
19448;SDS011;9863;49.404;8.246;2023-04-25T02:45:49;15.60;;;3.50;;
19448;SDS011;9863;49.404;8.246;2023-04-25T02:48:16;10.25;;;2.40;;
19448;SDS011;9863;49.404;8.246;2023-04-25T02:50:44;9.10;;;2.08;;
19448;SDS011;9863;49.404;8.246;2023-04-25T02:53:11;16.08;;;3.58;;
19448;SDS011;9863;49.404;8.246;2023-04-25T02:55:39;11.52;;;2.63;;
19448;SDS011;9863;49.404;8.246;2023-04-25T02:58:06;14.57;;;3.38;;
19448;SDS011;9863;49.404;8.246;2023-04-25T03:00:34;29.55;;;6.22;;
19448;SDS011;9863;49.404;8.246;2023-04-25T03:03:01;27.63;;;5.97;;
19448;SDS011;9863;49.404;8.246;2023-04-25T03:05:29;18.20;;;4.03;;
19448;SDS011;9863;49.404;8.246;2023-04-25T03:07:56;13.63;;;2.97;;
19448;SDS011;9863;49.404;8.246;2023-04-25T03:10:24;20.50;;;4.40;;
19448;SDS011;9863;49.404;8.246;2023-04-25T03:12:51;22.08;;;4.72;;
19448;SDS011;9863;49.404;8.246;2023-04-25T03:15:18;10.65;;;2.42;;
19448;SDS011;9863;49.404;8.246;2023-04-25T03:17:46;9.13;;;2.20;;
19448;SDS011;9863;49.404;8.246;2023-04-25T03:20:13;18.92;;;4.18;;
19448;SDS011;9863;49.404;8.246;2023-04-25T03:22:40;18.38;;;4.00;;
19448;SDS011;9863;49.404;8.246;2023-04-25T03:25:08;19.38;;;4.15;;
19448;SDS011;9863;49.404;8.246;2023-04-25T03:27:35;18.85;;;3.97;;
19448;SDS011;9863;49.404;8.246;2023-04-25T03:30:03;17.83;;;3.90;;
19448;SDS011;9863;49.404;8.246;2023-04-25T03:32:31;11.20;;;2.53;;
19448;SDS011;9863;49.404;8.246;2023-04-25T03:34:58;14.45;;;3.10;;
19448;SDS011;9863;49.404;8.246;2023-04-25T03:37:26;12.73;;;2.72;;
19448;SDS011;9863;49.404;8.246;2023-04-25T03:39:53;17.25;;;3.65;;
19448;SDS011;9863;49.404;8.246;2023-04-25T03:42:20;15.80;;;3.42;;
19448;SDS011;9863;49.404;8.246;2023-04-25T03:44:49;12.18;;;2.65;;
19448;SDS011;9863;49.404;8.246;2023-04-25T03:47:17;14.38;;;3.47;;
19448;SDS011;9863;49.404;8.246;2023-04-25T03:49:44;10.13;;;2.53;;
19448;SDS011;9863;49.404;8.246;2023-04-25T03:52:12;19.10;;;4.47;;
19448;SDS011;9863;49.404;8.246;2023-04-25T03:54:39;8.55;;;2.38;;
19448;SDS011;9863;49.404;8.246;2023-04-25T03:57:07;18.75;;;4.13;;
19448;SDS011;9863;49.404;8.246;2023-04-25T03:59:34;13.80;;;3.05;;
19448;SDS011;9863;49.404;8.246;2023-04-25T04:02:01;17.30;;;3.83;;
19448;SDS011;9863;49.404;8.246;2023-04-25T04:04:29;9.40;;;2.47;;
19448;SDS011;9863;49.404;8.246;2023-04-25T04:06:57;11.38;;;2.90;;
19448;SDS011;9863;49.404;8.246;2023-04-25T04:09:25;17.88;;;3.97;;
19448;SDS011;9863;49.404;8.246;2023-04-25T04:11:52;13.65;;;3.05;;
19448;SDS011;9863;49.404;8.246;2023-04-25T04:14:19;10.88;;;2.65;;
19448;SDS011;9863;49.404;8.246;2023-04-25T04:16:47;17.95;;;4.00;;
19448;SDS011;9863;49.404;8.246;2023-04-25T04:19:14;11.40;;;2.80;;
19448;SDS011;9863;49.404;8.246;2023-04-25T04:21:41;14.80;;;3.22;;
19448;SDS011;9863;49.404;8.246;2023-04-25T04:24:09;12.68;;;2.85;;
19448;SDS011;9863;49.404;8.246;2023-04-25T04:26:36;11.38;;;2.58;;
19448;SDS011;9863;49.404;8.246;2023-04-25T04:29:05;9.00;;;2.15;;
19448;SDS011;9863;49.404;8.246;2023-04-25T04:31:33;8.85;;;2.10;;
19448;SDS011;9863;49.404;8.246;2023-04-25T04:34:00;20.23;;;4.47;;
19448;SDS011;9863;49.404;8.246;2023-04-25T04:36:28;14.02;;;3.17;;
19448;SDS011;9863;49.404;8.246;2023-04-25T04:38:55;9.63;;;2.20;;
19448;SDS011;9863;49.404;8.246;2023-04-25T04:41:23;15.82;;;3.47;;
19448;SDS011;9863;49.404;8.246;2023-04-25T04:43:50;18.90;;;4.13;;
19448;SDS011;9863;49.404;8.246;2023-04-25T04:46:19;19.25;;;4.28;;
19448;SDS011;9863;49.404;8.246;2023-04-25T04:48:46;10.93;;;2.92;;
19448;SDS011;9863;49.404;8.246;2023-04-25T04:51:14;7.75;;;2.13;;
19448;SDS011;9863;49.404;8.246;2023-04-25T04:53:41;13.20;;;3.45;;
19448;SDS011;9863;49.404;8.246;2023-04-25T04:56:09;11.48;;;3.15;;
19448;SDS011;9863;49.404;8.246;2023-04-25T04:58:36;15.70;;;3.38;;
19448;SDS011;9863;49.404;8.246;2023-04-25T05:01:04;10.65;;;3.03;;
19448;SDS011;9863;49.404;8.246;2023-04-25T05:03:32;13.90;;;3.65;;
19448;SDS011;9863;49.404;8.246;2023-04-25T05:06:00;10.18;;;2.25;;
19448;SDS011;9863;49.404;8.246;2023-04-25T05:08:27;10.52;;;2.35;;
19448;SDS011;9863;49.404;8.246;2023-04-25T05:10:55;10.57;;;2.63;;
19448;SDS011;9863;49.404;8.246;2023-04-25T05:13:22;11.13;;;2.53;;
19448;SDS011;9863;49.404;8.246;2023-04-25T05:15:49;8.32;;;2.10;;
19448;SDS011;9863;49.404;8.246;2023-04-25T05:18:17;9.93;;;2.47;;
19448;SDS011;9863;49.404;8.246;2023-04-25T05:20:46;11.77;;;2.83;;
19448;SDS011;9863;49.404;8.246;2023-04-25T05:23:13;10.02;;;2.67;;
19448;SDS011;9863;49.404;8.246;2023-04-25T05:25:41;10.65;;;2.40;;
19448;SDS011;9863;49.404;8.246;2023-04-25T05:28:09;9.73;;;2.22;;
19448;SDS011;9863;49.404;8.246;2023-04-25T05:30:36;13.40;;;3.03;;
19448;SDS011;9863;49.404;8.246;2023-04-25T05:33:04;11.15;;;2.58;;
19448;SDS011;9863;49.404;8.246;2023-04-25T05:35:31;11.27;;;2.50;;
19448;SDS011;9863;49.404;8.246;2023-04-25T05:37:59;12.35;;;2.78;;
19448;SDS011;9863;49.404;8.246;2023-04-25T05:40:26;11.07;;;2.55;;
19448;SDS011;9863;49.404;8.246;2023-04-25T05:42:54;9.63;;;2.15;;
19448;SDS011;9863;49.404;8.246;2023-04-25T05:45:21;12.38;;;2.75;;
19448;SDS011;9863;49.404;8.246;2023-04-25T05:47:49;10.98;;;2.47;;
19448;SDS011;9863;49.404;8.246;2023-04-25T05:50:17;13.93;;;2.97;;
19448;SDS011;9863;49.404;8.246;2023-04-25T05:52:44;10.98;;;2.47;;
19448;SDS011;9863;49.404;8.246;2023-04-25T05:55:12;12.00;;;2.72;;
19448;SDS011;9863;49.404;8.246;2023-04-25T05:57:39;15.90;;;3.42;;
19448;SDS011;9863;49.404;8.246;2023-04-25T06:00:08;13.23;;;3.00;;
19448;SDS011;9863;49.404;8.246;2023-04-25T06:02:37;13.43;;;3.03;;
19448;SDS011;9863;49.404;8.246;2023-04-25T06:05:04;10.63;;;2.40;;
19448;SDS011;9863;49.404;8.246;2023-04-25T06:07:32;13.77;;;3.00;;
19448;SDS011;9863;49.404;8.246;2023-04-25T06:09:59;9.48;;;2.10;;
19448;SDS011;9863;49.404;8.246;2023-04-25T06:12:27;7.30;;;2.20;;
19448;SDS011;9863;49.404;8.246;2023-04-25T06:14:55;10.88;;;3.20;;
19448;SDS011;9863;49.404;8.246;2023-04-25T06:17:22;7.22;;;2.08;;
19448;SDS011;9863;49.404;8.246;2023-04-25T06:19:49;7.10;;;2.10;;
19448;SDS011;9863;49.404;8.246;2023-04-25T06:22:17;11.95;;;3.47;;
19448;SDS011;9863;49.404;8.246;2023-04-25T06:24:44;7.07;;;2.30;;
19448;SDS011;9863;49.404;8.246;2023-04-25T06:27:12;7.22;;;2.20;;
19448;SDS011;9863;49.404;8.246;2023-04-25T06:29:42;6.05;;;1.90;;
19448;SDS011;9863;49.404;8.246;2023-04-25T06:32:09;9.68;;;3.10;;
19448;SDS011;9863;49.404;8.246;2023-04-25T06:34:37;10.50;;;2.63;;
19448;SDS011;9863;49.404;8.246;2023-04-25T06:37:04;5.82;;;1.90;;
19448;SDS011;9863;49.404;8.246;2023-04-25T06:39:31;6.03;;;1.83;;
19448;SDS011;9863;49.404;8.246;2023-04-25T06:41:59;7.10;;;2.53;;
19448;SDS011;9863;49.404;8.246;2023-04-25T06:44:26;7.95;;;2.63;;
19448;SDS011;9863;49.404;8.246;2023-04-25T06:46:55;5.43;;;1.80;;
19448;SDS011;9863;49.404;8.246;2023-04-25T06:49:23;4.57;;;1.63;;
19448;SDS011;9863;49.404;8.246;2023-04-25T06:51:50;8.80;;;2.60;;
19448;SDS011;9863;49.404;8.246;2023-04-25T06:54:17;5.22;;;2.00;;
19448;SDS011;9863;49.404;8.246;2023-04-25T06:56:45;5.32;;;1.80;;
19448;SDS011;9863;49.404;8.246;2023-04-25T06:59:12;3.65;;;1.60;;
19448;SDS011;9863;49.404;8.246;2023-04-25T07:01:40;5.40;;;2.38;;
19448;SDS011;9863;49.404;8.246;2023-04-25T07:04:07;5.22;;;2.03;;
19448;SDS011;9863;49.404;8.246;2023-04-25T07:06:35;3.95;;;1.60;;
19448;SDS011;9863;49.404;8.246;2023-04-25T07:09:08;10.40;;;2.60;;
19448;SDS011;9863;49.404;8.246;2023-04-25T07:11:36;5.43;;;2.13;;
19448;SDS011;9863;49.404;8.246;2023-04-25T07:14:04;3.75;;;1.48;;
19448;SDS011;9863;49.404;8.246;2023-04-25T07:16:31;5.90;;;2.50;;
19448;SDS011;9863;49.404;8.246;2023-04-25T07:18:58;4.78;;;2.15;;
19448;SDS011;9863;49.404;8.246;2023-04-25T07:21:26;4.47;;;1.80;;
19448;SDS011;9863;49.404;8.246;2023-04-25T07:23:54;3.95;;;1.75;;
19448;SDS011;9863;49.404;8.246;2023-04-25T07:26:21;4.45;;;1.95;;
19448;SDS011;9863;49.404;8.246;2023-04-25T07:28:49;3.17;;;1.80;;
19448;SDS011;9863;49.404;8.246;2023-04-25T07:31:17;4.90;;;2.15;;
19448;SDS011;9863;49.404;8.246;2023-04-25T07:33:45;1.83;;;1.17;;
19448;SDS011;9863;49.404;8.246;2023-04-25T07:36:13;2.65;;;1.50;;
19448;SDS011;9863;49.404;8.246;2023-04-25T07:38:41;2.67;;;1.60;;
19448;SDS011;9863;49.404;8.246;2023-04-25T07:41:09;3.08;;;1.60;;
19448;SDS011;9863;49.404;8.246;2023-04-25T07:43:36;3.65;;;1.70;;
19448;SDS011;9863;49.404;8.246;2023-04-25T07:46:04;4.07;;;1.90;;
19448;SDS011;9863;49.404;8.246;2023-04-25T07:48:31;3.67;;;1.85;;
19448;SDS011;9863;49.404;8.246;2023-04-25T07:50:58;2.30;;;1.27;;
19448;SDS011;9863;49.404;8.246;2023-04-25T07:53:26;4.28;;;2.22;;
19448;SDS011;9863;49.404;8.246;2023-04-25T07:55:53;3.20;;;1.70;;
19448;SDS011;9863;49.404;8.246;2023-04-25T07:58:20;3.30;;;1.85;;
19448;SDS011;9863;49.404;8.246;2023-04-25T08:00:48;3.00;;;1.50;;
19448;SDS011;9863;49.404;8.246;2023-04-25T08:03:16;4.00;;;2.75;;
19448;SDS011;9863;49.404;8.246;2023-04-25T08:05:44;2.55;;;1.50;;
19448;SDS011;9863;49.404;8.246;2023-04-25T08:08:12;3.20;;;1.73;;
19448;SDS011;9863;49.404;8.246;2023-04-25T08:10:39;2.78;;;1.70;;
19448;SDS011;9863;49.404;8.246;2023-04-25T08:13:07;2.03;;;1.40;;
19448;SDS011;9863;49.404;8.246;2023-04-25T08:15:34;2.70;;;1.45;;
19448;SDS011;9863;49.404;8.246;2023-04-25T08:18:02;2.85;;;1.60;;
19448;SDS011;9863;49.404;8.246;2023-04-25T08:20:29;3.78;;;1.80;;
19448;SDS011;9863;49.404;8.246;2023-04-25T08:22:57;3.55;;;1.63;;
19448;SDS011;9863;49.404;8.246;2023-04-25T08:25:24;3.13;;;1.73;;
19448;SDS011;9863;49.404;8.246;2023-04-25T08:27:52;4.50;;;1.90;;
19448;SDS011;9863;49.404;8.246;2023-04-25T08:30:19;3.30;;;1.48;;
19448;SDS011;9863;49.404;8.246;2023-04-25T08:32:47;4.72;;;1.90;;
19448;SDS011;9863;49.404;8.246;2023-04-25T08:35:15;5.50;;;2.10;;
19448;SDS011;9863;49.404;8.246;2023-04-25T08:37:43;2.88;;;1.52;;
19448;SDS011;9863;49.404;8.246;2023-04-25T08:40:11;3.20;;;1.50;;
19448;SDS011;9863;49.404;8.246;2023-04-25T08:42:41;2.67;;;1.52;;
19448;SDS011;9863;49.404;8.246;2023-04-25T08:45:09;2.28;;;1.33;;
19448;SDS011;9863;49.404;8.246;2023-04-25T08:47:37;2.30;;;1.40;;
19448;SDS011;9863;49.404;8.246;2023-04-25T08:50:06;2.38;;;1.30;;
19448;SDS011;9863;49.404;8.246;2023-04-25T08:52:44;2.58;;;1.45;;
19448;SDS011;9863;49.404;8.246;2023-04-25T08:55:12;2.28;;;1.30;;
19448;SDS011;9863;49.404;8.246;2023-04-25T08:57:40;4.22;;;1.92;;
19448;SDS011;9863;49.404;8.246;2023-04-25T09:00:11;3.92;;;1.80;;
19448;SDS011;9863;49.404;8.246;2023-04-25T09:02:40;3.10;;;1.50;;
19448;SDS011;9863;49.404;8.246;2023-04-25T09:05:11;3.55;;;1.83;;
19448;SDS011;9863;49.404;8.246;2023-04-25T09:07:40;3.70;;;1.80;;
19448;SDS011;9863;49.404;8.246;2023-04-25T09:10:07;3.78;;;1.88;;
19448;SDS011;9863;49.404;8.246;2023-04-25T09:12:35;3.63;;;1.80;;
19448;SDS011;9863;49.404;8.246;2023-04-25T09:15:05;4.63;;;2.17;;
19448;SDS011;9863;49.404;8.246;2023-04-25T09:17:37;3.85;;;1.67;;
19448;SDS011;9863;49.404;8.246;2023-04-25T09:20:08;3.75;;;1.63;;
19448;SDS011;9863;49.404;8.246;2023-04-25T09:22:38;4.97;;;1.92;;
19448;SDS011;9863;49.404;8.246;2023-04-25T09:25:12;3.72;;;1.77;;
19448;SDS011;9863;49.404;8.246;2023-04-25T09:27:50;5.57;;;2.33;;
19448;SDS011;9863;49.404;8.246;2023-04-25T09:30:26;5.53;;;2.25;;
19448;SDS011;9863;49.404;8.246;2023-04-25T09:32:57;3.90;;;2.00;;
19448;SDS011;9863;49.404;8.246;2023-04-25T09:35:50;3.38;;;1.70;;
19448;SDS011;9863;49.404;8.246;2023-04-25T09:38:21;3.03;;;1.52;;
19448;SDS011;9863;49.404;8.246;2023-04-25T09:40:49;3.70;;;1.80;;
19448;SDS011;9863;49.404;8.246;2023-04-25T09:43:22;4.97;;;2.30;;
19448;SDS011;9863;49.404;8.246;2023-04-25T09:45:50;4.20;;;1.90;;
19448;SDS011;9863;49.404;8.246;2023-04-25T09:48:22;3.08;;;1.58;;
19448;SDS011;9863;49.404;8.246;2023-04-25T09:53:37;4.13;;;1.80;;
19448;SDS011;9863;49.404;8.246;2023-04-25T09:56:08;3.03;;;1.58;;
19448;SDS011;9863;49.404;8.246;2023-04-25T09:58:37;5.00;;;2.22;;
19448;SDS011;9863;49.404;8.246;2023-04-25T10:01:06;4.60;;;1.73;;
19448;SDS011;9863;49.404;8.246;2023-04-25T10:03:37;4.47;;;1.77;;
19448;SDS011;9863;49.404;8.246;2023-04-25T10:06:11;3.67;;;1.83;;
19448;SDS011;9863;49.404;8.246;2023-04-25T10:08:42;2.33;;;1.17;;
19448;SDS011;9863;49.404;8.246;2023-04-25T10:11:10;2.92;;;1.48;;
19448;SDS011;9863;49.404;8.246;2023-04-25T10:13:40;3.15;;;1.90;;
19448;SDS011;9863;49.404;8.246;2023-04-25T10:16:09;2.63;;;1.35;;
19448;SDS011;9863;49.404;8.246;2023-04-25T10:18:36;3.33;;;1.75;;
19448;SDS011;9863;49.404;8.246;2023-04-25T10:21:04;2.05;;;1.25;;
19448;SDS011;9863;49.404;8.246;2023-04-25T10:23:32;3.83;;;2.15;;
19448;SDS011;9863;49.404;8.246;2023-04-25T10:26:03;3.92;;;1.95;;
19448;SDS011;9863;49.404;8.246;2023-04-25T10:28:44;3.10;;;1.65;;
19448;SDS011;9863;49.404;8.246;2023-04-25T10:31:25;2.85;;;1.50;;
19448;SDS011;9863;49.404;8.246;2023-04-25T10:33:53;3.33;;;1.77;;
19448;SDS011;9863;49.404;8.246;2023-04-25T10:36:22;3.25;;;1.75;;
19448;SDS011;9863;49.404;8.246;2023-04-25T10:38:50;3.33;;;1.73;;
19448;SDS011;9863;49.404;8.246;2023-04-25T10:41:19;2.80;;;1.70;;
19448;SDS011;9863;49.404;8.246;2023-04-25T10:43:47;3.35;;;1.80;;
19448;SDS011;9863;49.404;8.246;2023-04-25T10:46:29;3.83;;;1.88;;
19448;SDS011;9863;49.404;8.246;2023-04-25T10:49:01;2.78;;;1.60;;
19448;SDS011;9863;49.404;8.246;2023-04-25T10:51:33;4.40;;;2.22;;
19448;SDS011;9863;49.404;8.246;2023-04-25T10:54:21;2.60;;;1.38;;
19448;SDS011;9863;49.404;8.246;2023-04-25T10:56:51;6.47;;;2.60;;
19448;SDS011;9863;49.404;8.246;2023-04-25T10:59:19;4.90;;;2.97;;
19448;SDS011;9863;49.404;8.246;2023-04-25T11:01:48;5.80;;;2.70;;
19448;SDS011;9863;49.404;8.246;2023-04-25T11:04:28;3.08;;;1.45;;
19448;SDS011;9863;49.404;8.246;2023-04-25T11:09:38;4.13;;;2.28;;
19448;SDS011;9863;49.404;8.246;2023-04-25T11:12:07;4.47;;;2.15;;
19448;SDS011;9863;49.404;8.246;2023-04-25T11:14:38;3.78;;;2.05;;
19448;SDS011;9863;49.404;8.246;2023-04-25T11:17:05;2.05;;;1.30;;
19448;SDS011;9863;49.404;8.246;2023-04-25T11:19:33;3.67;;;1.65;;
19448;SDS011;9863;49.404;8.246;2023-04-25T11:22:01;3.28;;;1.73;;
19448;SDS011;9863;49.404;8.246;2023-04-25T11:26:57;1.92;;;1.23;;
19448;SDS011;9863;49.404;8.246;2023-04-25T11:29:26;2.58;;;1.63;;
19448;SDS011;9863;49.404;8.246;2023-04-25T11:31:54;1.83;;;1.33;;
19448;SDS011;9863;49.404;8.246;2023-04-25T11:34:28;2.60;;;1.63;;
19448;SDS011;9863;49.404;8.246;2023-04-25T11:37:02;1.90;;;1.15;;
19448;SDS011;9863;49.404;8.246;2023-04-25T11:39:32;3.15;;;1.98;;
19448;SDS011;9863;49.404;8.246;2023-04-25T11:41:59;2.30;;;1.35;;
19448;SDS011;9863;49.404;8.246;2023-04-25T11:44:29;1.52;;;1.02;;
19448;SDS011;9863;49.404;8.246;2023-04-25T11:46:57;2.92;;;1.80;;
19448;SDS011;9863;49.404;8.246;2023-04-25T11:49:29;1.83;;;1.20;;
19448;SDS011;9863;49.404;8.246;2023-04-25T11:51:58;2.72;;;1.70;;
19448;SDS011;9863;49.404;8.246;2023-04-25T11:54:26;3.25;;;1.50;;
19448;SDS011;9863;49.404;8.246;2023-04-25T11:56:53;2.45;;;1.50;;
19448;SDS011;9863;49.404;8.246;2023-04-25T11:59:24;1.98;;;1.38;;
19448;SDS011;9863;49.404;8.246;2023-04-25T12:01:52;2.15;;;1.30;;
19448;SDS011;9863;49.404;8.246;2023-04-25T12:04:21;2.95;;;1.80;;
19448;SDS011;9863;49.404;8.246;2023-04-25T12:06:51;3.40;;;2.00;;
19448;SDS011;9863;49.404;8.246;2023-04-25T12:09:21;2.55;;;1.42;;
19448;SDS011;9863;49.404;8.246;2023-04-25T12:11:57;2.60;;;1.58;;
19448;SDS011;9863;49.404;8.246;2023-04-25T12:14:32;2.33;;;1.30;;
19448;SDS011;9863;49.404;8.246;2023-04-25T12:17:02;2.28;;;1.40;;
19448;SDS011;9863;49.404;8.246;2023-04-25T12:19:35;3.58;;;2.08;;
19448;SDS011;9863;49.404;8.246;2023-04-25T12:22:19;3.70;;;1.95;;
19448;SDS011;9863;49.404;8.246;2023-04-25T12:24:49;3.33;;;1.95;;
19448;SDS011;9863;49.404;8.246;2023-04-25T12:27:18;3.30;;;2.00;;
19448;SDS011;9863;49.404;8.246;2023-04-25T12:29:53;3.38;;;1.80;;
19448;SDS011;9863;49.404;8.246;2023-04-25T12:32:22;3.53;;;1.83;;
19448;SDS011;9863;49.404;8.246;2023-04-25T12:34:49;5.15;;;2.83;;
19448;SDS011;9863;49.404;8.246;2023-04-25T12:37:17;3.28;;;1.77;;
19448;SDS011;9863;49.404;8.246;2023-04-25T12:39:45;3.70;;;1.92;;
19448;SDS011;9863;49.404;8.246;2023-04-25T12:42:12;4.13;;;2.17;;
19448;SDS011;9863;49.404;8.246;2023-04-25T12:44:40;2.38;;;1.38;;
19448;SDS011;9863;49.404;8.246;2023-04-25T12:47:08;3.28;;;1.70;;
19448;SDS011;9863;49.404;8.246;2023-04-25T12:49:37;3.63;;;1.80;;
19448;SDS011;9863;49.404;8.246;2023-04-25T12:52:12;5.90;;;3.05;;
19448;SDS011;9863;49.404;8.246;2023-04-25T12:54:39;3.17;;;1.85;;
19448;SDS011;9863;49.404;8.246;2023-04-25T12:57:07;2.95;;;1.55;;
19448;SDS011;9863;49.404;8.246;2023-04-25T12:59:34;5.38;;;2.55;;
19448;SDS011;9863;49.404;8.246;2023-04-25T13:02:02;5.97;;;2.72;;
19448;SDS011;9863;49.404;8.246;2023-04-25T13:04:29;3.20;;;1.67;;
19448;SDS011;9863;49.404;8.246;2023-04-25T13:06:57;3.38;;;1.60;;
19448;SDS011;9863;49.404;8.246;2023-04-25T13:09:25;5.40;;;2.45;;
19448;SDS011;9863;49.404;8.246;2023-04-25T13:11:52;9.23;;;4.22;;
19448;SDS011;9863;49.404;8.246;2023-04-25T13:14:23;2.83;;;1.30;;
19448;SDS011;9863;49.404;8.246;2023-04-25T13:16:51;3.90;;;1.77;;
19448;SDS011;9863;49.404;8.246;2023-04-25T13:19:18;5.93;;;2.97;;
19448;SDS011;9863;49.404;8.246;2023-04-25T13:21:46;5.18;;;2.22;;
19448;SDS011;9863;49.404;8.246;2023-04-25T13:24:13;5.53;;;2.33;;
19448;SDS011;9863;49.404;8.246;2023-04-25T13:26:41;5.40;;;2.17;;
19448;SDS011;9863;49.404;8.246;2023-04-25T13:29:09;7.32;;;2.90;;
19448;SDS011;9863;49.404;8.246;2023-04-25T13:31:37;6.28;;;2.65;;
19448;SDS011;9863;49.404;8.246;2023-04-25T13:34:04;5.25;;;2.08;;
19448;SDS011;9863;49.404;8.246;2023-04-25T13:36:32;4.80;;;2.10;;
19448;SDS011;9863;49.404;8.246;2023-04-25T13:39:00;6.30;;;2.80;;
19448;SDS011;9863;49.404;8.246;2023-04-25T13:41:27;4.80;;;2.05;;
19448;SDS011;9863;49.404;8.246;2023-04-25T13:43:55;3.60;;;1.73;;
19448;SDS011;9863;49.404;8.246;2023-04-25T13:46:22;5.15;;;2.38;;
19448;SDS011;9863;49.404;8.246;2023-04-25T13:49:10;3.33;;;1.73;;
19448;SDS011;9863;49.404;8.246;2023-04-25T13:51:39;3.58;;;1.88;;
19448;SDS011;9863;49.404;8.246;2023-04-25T13:54:06;4.25;;;2.08;;
19448;SDS011;9863;49.404;8.246;2023-04-25T13:56:34;3.42;;;1.63;;
19448;SDS011;9863;49.404;8.246;2023-04-25T13:59:01;4.68;;;2.13;;
19448;SDS011;9863;49.404;8.246;2023-04-25T14:01:29;4.38;;;1.90;;
19448;SDS011;9863;49.404;8.246;2023-04-25T14:04:01;5.82;;;2.50;;
19448;SDS011;9863;49.404;8.246;2023-04-25T14:06:31;3.30;;;1.55;;
19448;SDS011;9863;49.404;8.246;2023-04-25T14:08:59;4.63;;;1.92;;
19448;SDS011;9863;49.404;8.246;2023-04-25T14:11:30;4.50;;;2.08;;
19448;SDS011;9863;49.404;8.246;2023-04-25T14:13:58;3.92;;;1.73;;
19448;SDS011;9863;49.404;8.246;2023-04-25T14:16:25;3.25;;;1.30;;
19448;SDS011;9863;49.404;8.246;2023-04-25T14:18:53;4.13;;;1.92;;
19448;SDS011;9863;49.404;8.246;2023-04-25T14:21:20;4.03;;;1.88;;
19448;SDS011;9863;49.404;8.246;2023-04-25T14:23:48;4.68;;;1.85;;
19448;SDS011;9863;49.404;8.246;2023-04-25T14:26:16;3.83;;;1.85;;
19448;SDS011;9863;49.404;8.246;2023-04-25T14:28:44;6.75;;;2.85;;
19448;SDS011;9863;49.404;8.246;2023-04-25T14:31:12;5.40;;;2.55;;
19448;SDS011;9863;49.404;8.246;2023-04-25T14:33:39;4.25;;;1.90;;
19448;SDS011;9863;49.404;8.246;2023-04-25T14:36:09;3.72;;;1.58;;
19448;SDS011;9863;49.404;8.246;2023-04-25T14:38:37;7.38;;;2.72;;
19448;SDS011;9863;49.404;8.246;2023-04-25T14:41:04;4.40;;;1.65;;
19448;SDS011;9863;49.404;8.246;2023-04-25T14:43:32;4.25;;;1.80;;
19448;SDS011;9863;49.404;8.246;2023-04-25T14:46:00;5.80;;;2.40;;
19448;SDS011;9863;49.404;8.246;2023-04-25T14:48:28;5.20;;;2.13;;
19448;SDS011;9863;49.404;8.246;2023-04-25T14:50:56;4.47;;;2.25;;
19448;SDS011;9863;49.404;8.246;2023-04-25T14:53:23;4.90;;;2.25;;
19448;SDS011;9863;49.404;8.246;2023-04-25T14:55:51;7.05;;;2.97;;
19448;SDS011;9863;49.404;8.246;2023-04-25T14:58:20;4.35;;;1.80;;
19448;SDS011;9863;49.404;8.246;2023-04-25T15:00:47;5.43;;;2.17;;
19448;SDS011;9863;49.404;8.246;2023-04-25T15:03:15;4.10;;;1.70;;
19448;SDS011;9863;49.404;8.246;2023-04-25T15:05:43;6.18;;;2.63;;
19448;SDS011;9863;49.404;8.246;2023-04-25T15:08:11;3.53;;;1.52;;
19448;SDS011;9863;49.404;8.246;2023-04-25T15:10:38;4.80;;;2.00;;
19448;SDS011;9863;49.404;8.246;2023-04-25T15:13:06;5.53;;;2.42;;